createdAt,value
2022-09-26T00:00:09.361Z,100618.28
2022-09-26T00:02:36.025Z,100568.47
2022-09-26T00:05:02.744Z,100607.53
2022-09-26T00:07:29.334Z,100602.00
2022-09-26T00:09:55.940Z,100572.09
2022-09-26T00:12:22.533Z,100585.06
2022-09-26T00:14:49.030Z,100568.56
2022-09-26T00:17:15.634Z,100599.13
2022-09-26T00:19:42.172Z,100600.16
2022-09-26T00:22:08.757Z,100600.97
2022-09-26T00:24:35.553Z,100547.91
2022-09-26T00:27:02.096Z,100600.97
2022-09-26T00:29:28.617Z,100581.19
2022-09-26T00:31:55.097Z,100550.69
2022-09-26T00:34:21.624Z,100561.44
2022-09-26T00:36:48.219Z,100572.47
2022-09-26T00:39:15.985Z,100581.63
2022-09-26T00:41:43.349Z,100559.13
2022-09-26T00:44:34.843Z,100581.53
2022-09-26T00:47:01.881Z,100572.75
2022-09-26T00:49:37.618Z,100589.31
2022-09-26T00:52:12.873Z,100580.59
2022-09-26T00:54:45.360Z,100575.44
2022-09-26T00:57:24.763Z,100472.25
2022-09-26T00:59:57.459Z,100565.69
2022-09-26T01:02:27.052Z,100555.69
2022-09-26T01:04:55.359Z,100537.06
2022-09-26T01:07:25.974Z,100565.34
2022-09-26T01:09:53.016Z,100573.84
2022-09-26T01:12:21.185Z,100549.03
2022-09-26T01:14:50.676Z,100501.31
2022-09-26T01:17:17.667Z,100436.88
2022-09-26T01:20:21.971Z,100587.34
2022-09-26T01:23:20.359Z,100545.28
2022-09-26T01:26:26.513Z,100507.78
2022-09-26T01:29:15.793Z,100522.47
2022-09-26T01:32:06.780Z,100562.69
2022-09-26T01:34:50.839Z,100559.84
2022-09-26T01:37:39.489Z,100557.16
2022-09-26T01:40:17.816Z,100471.28
2022-09-26T01:43:00.124Z,100556.56
2022-09-26T01:45:34.075Z,100556.56
2022-09-26T01:48:33.749Z,100544.44
2022-09-26T01:51:05.211Z,100523.91
2022-09-26T01:53:40.227Z,100515.84
2022-09-26T01:56:12.652Z,100553.06
2022-09-26T01:58:48.077Z,100534.66
2022-09-26T02:01:18.744Z,100533.44
2022-09-26T02:03:49.743Z,100536.03
2022-09-26T02:06:24.483Z,100521.66
2022-09-26T02:08:57.607Z,100536.13
2022-09-26T02:11:26.392Z,100528.78
2022-09-26T02:13:59.587Z,100521.75
2022-09-26T02:16:31.929Z,100477.78
2022-09-26T02:19:13.648Z,100477.78
2022-09-26T02:21:42.556Z,100501.66
2022-09-26T02:24:09.142Z,100512.22
2022-09-26T02:26:35.797Z,100420.69
2022-09-26T02:29:02.425Z,100436.47
2022-09-26T02:31:34.192Z,100475.38
2022-09-26T02:34:03.351Z,100514.66
2022-09-26T02:36:33.115Z,100528.78
2022-09-26T02:39:00.097Z,100495.38
2022-09-26T02:41:41.856Z,100521.09
2022-09-26T02:44:39.189Z,100460.16
2022-09-26T02:47:39.820Z,100499.34
2022-09-26T02:50:40.529Z,100508.88
2022-09-26T02:53:10.281Z,100508.38
2022-09-26T02:55:45.887Z,100502.19
2022-09-26T02:58:21.292Z,100493.50
2022-09-26T03:01:03.938Z,100500.25
2022-09-26T03:03:51.065Z,100424.94
2022-09-26T03:06:22.903Z,100494.78
2022-09-26T03:08:49.669Z,100495.69
2022-09-26T03:11:24.000Z,100482.81
2022-09-26T03:13:53.602Z,100480.31
2022-09-26T03:16:22.503Z,100499.72
2022-09-26T03:18:54.553Z,100490.19
2022-09-26T03:21:21.681Z,100495.34
2022-09-26T03:23:49.163Z,100490.63
2022-09-26T03:26:24.651Z,100486.47
2022-09-26T03:28:52.385Z,100476.13
2022-09-26T03:31:22.331Z,100485.66
2022-09-26T03:33:49.160Z,100452.78
2022-09-26T03:36:16.036Z,100474.16
2022-09-26T03:38:42.779Z,100459.34
2022-09-26T03:41:09.765Z,100467.56
2022-09-26T03:43:36.843Z,100484.41
2022-09-26T03:46:07.549Z,100455.59
2022-09-26T03:48:34.675Z,100495.81
2022-09-26T03:51:09.535Z,100472.56
2022-09-26T03:53:38.499Z,100466.72
2022-09-26T03:56:08.429Z,100479.72
2022-09-26T03:58:35.308Z,100444.16
2022-09-26T04:01:10.978Z,100468.31
2022-09-26T04:03:39.493Z,100460.75
2022-09-26T04:06:10.911Z,100459.53
2022-09-26T04:08:38.973Z,100456.69
2022-09-26T04:11:11.695Z,100455.38
2022-09-26T04:13:51.213Z,100450.09
2022-09-26T04:16:20.283Z,100441.47
2022-09-26T04:18:47.148Z,100444.78
2022-09-26T04:21:14.486Z,100369.44
2022-09-26T04:23:42.882Z,100374.16
2022-09-26T04:26:20.131Z,100361.44
2022-09-26T04:28:49.503Z,100349.44
2022-09-26T04:31:16.107Z,100422.88
2022-09-26T04:33:42.655Z,100417.34
2022-09-26T04:36:11.687Z,100425.75
2022-09-26T04:38:39.325Z,100325.63
2022-09-26T04:41:13.823Z,100431.84
2022-09-26T04:43:41.046Z,100425.66
2022-09-26T04:46:18.563Z,100304.38
2022-09-26T04:48:47.945Z,100345.28
2022-09-26T04:51:16.931Z,100431.47
2022-09-26T04:53:44.184Z,100409.13
2022-09-26T04:56:14.010Z,100402.94
2022-09-26T04:58:42.352Z,100451.47
2022-09-26T05:01:17.372Z,100432.78
2022-09-26T05:03:44.307Z,100427.47
2022-09-26T05:06:12.379Z,100441.94
2022-09-26T05:08:41.383Z,100433.78
2022-09-26T05:11:09.433Z,100393.22
2022-09-26T05:13:37.802Z,100436.19
2022-09-26T05:16:06.325Z,100434.38
2022-09-26T05:18:33.776Z,100441.13
2022-09-26T05:21:01.420Z,100351.22
2022-09-26T05:23:46.732Z,100313.94
2022-09-26T05:26:23.324Z,100445.44
2022-09-26T05:28:55.510Z,100407.41
2022-09-26T05:31:39.478Z,100388.69
2022-09-26T05:34:19.231Z,100417.53
2022-09-26T05:36:48.667Z,100375.00
2022-09-26T05:39:35.876Z,100322.38
2022-09-26T05:42:06.593Z,100404.78
2022-09-26T05:44:33.600Z,100430.97
2022-09-26T05:47:00.506Z,100415.63
2022-09-26T05:49:27.833Z,100410.25
2022-09-26T05:51:54.635Z,100419.22
2022-09-26T05:54:21.178Z,100327.41
2022-09-26T05:56:48.362Z,100430.59
2022-09-26T05:59:14.953Z,100406.25
2022-09-26T06:01:41.595Z,100405.88
2022-09-26T06:04:10.281Z,100445.31
2022-09-26T06:06:36.865Z,100396.63
2022-09-26T06:09:03.921Z,100451.22
2022-09-26T06:11:33.241Z,100246.94
2022-09-26T06:14:00.770Z,100362.41
2022-09-26T06:16:28.147Z,100365.09
2022-09-26T06:18:55.927Z,100426.91
2022-09-26T06:21:23.456Z,100411.09
2022-09-26T06:23:50.085Z,100432.81
2022-09-26T06:26:21.880Z,100445.88
2022-09-26T06:28:50.048Z,100440.44
2022-09-26T06:31:18.915Z,100430.41
2022-09-26T06:33:50.427Z,100421.72
2022-09-26T06:36:17.159Z,100428.84
2022-09-26T06:38:43.654Z,100407.31
2022-09-26T06:41:10.223Z,100415.69
2022-09-26T06:43:36.988Z,100448.38
2022-09-26T06:46:08.347Z,100454.03
2022-09-26T06:48:35.444Z,100455.22
2022-09-26T06:51:02.016Z,100470.41
2022-09-26T06:53:28.857Z,100469.69
2022-09-26T06:55:55.419Z,100481.78
2022-09-26T06:58:22.014Z,100418.75
2022-09-26T07:00:48.704Z,100470.59
2022-09-26T07:03:16.043Z,100469.13
2022-09-26T07:05:44.864Z,100469.13
2022-09-26T07:08:13.634Z,100479.31
2022-09-26T07:10:40.192Z,100478.44
2022-09-26T07:13:09.464Z,100450.63
2022-09-26T07:15:37.528Z,100466.50
2022-09-26T07:18:06.486Z,100429.03
2022-09-26T07:20:36.821Z,100472.88
2022-09-26T07:23:05.031Z,100478.09
2022-09-26T07:25:33.279Z,100485.94
2022-09-26T07:28:00.327Z,100476.88
2022-09-26T07:30:28.295Z,100459.28
2022-09-26T07:33:05.381Z,100495.88
2022-09-26T07:35:33.860Z,100473.47
2022-09-26T07:38:00.450Z,100504.41
2022-09-26T07:40:27.642Z,100499.19
2022-09-26T07:43:18.734Z,100485.22
2022-09-26T07:46:06.165Z,100489.91
2022-09-26T07:48:58.668Z,100469.09
2022-09-26T07:51:25.221Z,100393.69
2022-09-26T07:53:52.629Z,100494.63
2022-09-26T07:56:19.192Z,100488.78
2022-09-26T07:58:46.427Z,100505.97
2022-09-26T08:01:15.126Z,100508.06
2022-09-26T08:03:43.702Z,100478.97
2022-09-26T08:06:12.976Z,100468.66
2022-09-26T08:08:43.808Z,100486.81
2022-09-26T08:11:18.234Z,100477.63
2022-09-26T08:13:45.360Z,100487.41
2022-09-26T08:16:19.354Z,100492.84
2022-09-26T08:18:47.078Z,100491.44
2022-09-26T08:21:14.345Z,100480.50
2022-09-26T08:23:41.632Z,100420.81
2022-09-26T08:26:08.466Z,100509.03
2022-09-26T08:28:37.717Z,100410.91
2022-09-26T08:31:05.767Z,100510.75
2022-09-26T08:33:35.278Z,100490.94
2022-09-26T08:36:10.218Z,100492.59
2022-09-26T08:38:37.851Z,100455.19
2022-09-26T08:41:13.525Z,100489.16
2022-09-26T08:44:12.388Z,100472.75
2022-09-26T08:47:34.356Z,100475.63
2022-09-26T08:50:09.550Z,100481.53
2022-09-26T08:52:58.408Z,100364.22
2022-09-26T08:55:33.123Z,100489.53
2022-09-26T08:58:07.096Z,100483.88
2022-09-26T09:00:38.275Z,100489.00
2022-09-26T09:03:11.042Z,100434.75
2022-09-26T09:05:42.123Z,100418.09
2022-09-26T09:08:17.392Z,100483.94
2022-09-26T09:11:12.754Z,100483.19
2022-09-26T09:14:00.677Z,100482.63
2022-09-26T09:16:42.141Z,100474.22
2022-09-26T09:19:17.368Z,100475.34
2022-09-26T09:21:59.161Z,100472.69
2022-09-26T09:24:38.168Z,100467.75
2022-09-26T09:30:22.678Z,100474.53
2022-09-26T09:32:53.683Z,100363.91
2022-09-26T09:35:27.901Z,100455.91
2022-09-26T09:37:55.083Z,100357.53
2022-09-26T09:40:30.256Z,100365.00
2022-09-26T09:43:26.762Z,100452.44
2022-09-26T09:46:01.660Z,100418.00
2022-09-26T09:48:28.498Z,100442.28
2022-09-26T09:51:06.226Z,100448.47
2022-09-26T09:53:35.717Z,100441.84
2022-09-26T09:56:45.434Z,100415.25
2022-09-26T09:59:22.139Z,100403.25
2022-09-26T10:02:11.159Z,100393.28
2022-09-26T10:04:46.476Z,100407.34
2022-09-26T10:07:13.356Z,100419.38
2022-09-26T10:09:41.902Z,100398.22
2022-09-26T10:12:18.200Z,100416.03
2022-09-26T10:15:02.618Z,100410.97
2022-09-26T10:17:29.639Z,100423.00
2022-09-26T10:19:56.846Z,100382.28
2022-09-26T10:22:32.484Z,100422.44
2022-09-26T10:25:16.039Z,100397.97
2022-09-26T10:27:50.162Z,100408.47
2022-09-26T10:30:19.901Z,100421.56
2022-09-26T10:32:52.771Z,100402.41
2022-09-26T10:35:43.661Z,100375.56
2022-09-26T10:38:27.393Z,100407.38
2022-09-26T10:40:59.800Z,100352.66
2022-09-26T10:43:31.302Z,100395.34
2022-09-26T10:46:19.236Z,100358.84
2022-09-26T10:48:52.361Z,100407.34
2022-09-26T10:51:28.734Z,100289.25
2022-09-26T10:54:08.755Z,100386.97
2022-09-26T10:56:47.144Z,100380.59
2022-09-26T10:59:24.451Z,100324.53
2022-09-26T11:01:56.525Z,100391.44
2022-09-26T11:04:45.799Z,100354.72
2022-09-26T11:07:24.567Z,100386.22
2022-09-26T11:09:53.222Z,100377.28
2022-09-26T11:12:27.458Z,100375.78
2022-09-26T11:14:58.610Z,100372.19
2022-09-26T11:17:45.375Z,100322.59
2022-09-26T11:20:27.421Z,100354.28
2022-09-26T11:23:24.381Z,100353.41
2022-09-26T11:26:12.906Z,100354.72
2022-09-26T11:28:50.180Z,100334.88
2022-09-26T11:31:28.390Z,100311.03
2022-09-26T11:33:59.551Z,100264.69
2022-09-26T11:37:04.039Z,100335.53
2022-09-26T11:40:08.554Z,100253.97
2022-09-26T11:42:49.077Z,100315.69
2022-09-26T11:45:45.263Z,100289.41
2022-09-26T11:48:19.928Z,100308.63
2022-09-26T11:51:40.316Z,100304.38
2022-09-26T11:54:45.715Z,100292.34
2022-09-26T11:57:24.610Z,100295.97
2022-09-26T12:00:06.581Z,100213.28
2022-09-26T12:02:40.001Z,100296.63
2022-09-26T12:05:30.416Z,100291.47
2022-09-26T12:08:19.253Z,100286.69
2022-09-26T12:10:56.717Z,100277.72
2022-09-26T12:13:41.697Z,100279.84
2022-09-26T12:16:41.108Z,100246.59
2022-09-26T12:19:20.160Z,100264.44
2022-09-26T12:22:27.616Z,100266.31
2022-09-26T12:25:07.401Z,100261.63
2022-09-26T12:28:08.138Z,100193.19
2022-09-26T12:31:01.262Z,100256.72
2022-09-26T12:33:50.050Z,100256.31
2022-09-26T12:36:23.053Z,100242.94
2022-09-26T12:38:57.007Z,100250.38
2022-09-26T12:41:52.693Z,100245.06
2022-09-26T12:44:31.677Z,100228.88
2022-09-26T12:47:10.731Z,100135.63
2022-09-26T12:49:40.367Z,100218.66
2022-09-26T12:52:21.544Z,100221.59
2022-09-26T12:55:13.045Z,100202.66
2022-09-26T12:57:51.176Z,100199.13
2022-09-26T13:00:23.139Z,100216.41
2022-09-26T13:03:15.952Z,100205.50
2022-09-26T13:05:51.785Z,100197.91
2022-09-26T13:08:37.934Z,100159.81
2022-09-26T13:11:32.681Z,100194.53
2022-09-26T13:14:13.374Z,100175.13
2022-09-26T13:17:09.881Z,100181.69
2022-09-26T13:19:48.309Z,100129.56
2022-09-26T13:22:31.655Z,100182.84
2022-09-26T13:25:17.506Z,100118.34
2022-09-26T13:27:51.399Z,100179.13
2022-09-26T13:30:23.371Z,100183.56
2022-09-26T13:33:20.413Z,100163.09
2022-09-26T13:35:51.205Z,100173.66
2022-09-26T13:38:36.001Z,100166.34
2022-09-26T13:41:32.836Z,100169.88
2022-09-26T13:44:37.867Z,100163.22
2022-09-26T13:47:13.494Z,100119.53
2022-09-26T13:50:19.847Z,100152.25
2022-09-26T13:53:16.123Z,100139.06
2022-09-26T13:55:43.548Z,100120.53
2022-09-26T13:58:21.725Z,100085.75
2022-09-26T14:00:53.152Z,100141.31
2022-09-26T14:03:24.972Z,100147.31
2022-09-26T14:06:06.703Z,100091.31
2022-09-26T14:08:52.811Z,100138.84
2022-09-26T14:11:19.409Z,100126.22
2022-09-26T14:14:18.295Z,100139.06
2022-09-26T14:16:46.979Z,100144.06
2022-09-26T14:19:35.738Z,100122.41
2022-09-26T14:22:05.790Z,100115.88
2022-09-26T14:24:34.698Z,100105.59
2022-09-26T14:27:12.743Z,100122.09
2022-09-26T14:29:45.092Z,100111.88
2022-09-26T14:32:18.823Z,100122.44
2022-09-26T14:34:54.812Z,100127.16
2022-09-26T14:37:24.442Z,100119.66
2022-09-26T14:40:11.780Z,100114.31
2022-09-26T14:43:00.175Z,100106.44
2022-09-26T14:45:43.862Z,100087.91
2022-09-26T14:48:17.091Z,100062.78
2022-09-26T14:51:01.514Z,100083.31
2022-09-26T14:53:42.104Z,100097.00
2022-09-26T14:56:29.900Z,100105.72
2022-09-26T14:59:26.261Z,100099.47
2022-09-26T15:02:11.540Z,100099.47
2022-09-26T15:04:39.084Z,100065.63
2022-09-26T15:07:16.274Z,100084.53
2022-09-26T15:09:48.912Z,99950.75
2022-09-26T15:12:26.183Z,100047.09
2022-09-26T15:15:05.138Z,100080.75
2022-09-26T15:17:37.146Z,99964.94
2022-09-26T15:20:09.543Z,100079.66
2022-09-26T15:22:44.354Z,100061.22
2022-09-26T15:25:31.180Z,100073.25
2022-09-26T15:28:01.069Z,99985.69
2022-09-26T15:30:38.541Z,99993.16
2022-09-26T15:33:06.028Z,100057.31
2022-09-26T15:35:34.079Z,100042.16
2022-09-26T15:38:03.797Z,100047.28
2022-09-26T15:40:32.192Z,100056.13
2022-09-26T15:43:09.592Z,100063.91
2022-09-26T15:45:59.755Z,100060.56
2022-09-26T15:48:33.538Z,99993.31
2022-09-26T15:51:15.972Z,100051.72
2022-09-26T15:53:50.676Z,100054.88
2022-09-26T15:56:27.652Z,99936.81
2022-09-26T15:58:57.131Z,100051.22
2022-09-26T16:01:28.234Z,100017.28
2022-09-26T16:04:20.505Z,100037.19
2022-09-26T16:06:57.500Z,100029.22
2022-09-26T16:09:34.174Z,99974.03
2022-09-26T16:12:05.808Z,100038.38
2022-09-26T16:14:42.899Z,100041.25
2022-09-26T16:17:26.384Z,100036.00
2022-09-26T16:19:55.669Z,100010.78
2022-09-26T16:22:29.418Z,100041.06
2022-09-26T16:25:25.519Z,100039.31
2022-09-26T16:28:00.152Z,100029.50
2022-09-26T16:30:30.113Z,100030.72
2022-09-26T16:33:17.502Z,100032.56
2022-09-26T16:35:46.658Z,100023.03
2022-09-26T16:38:34.915Z,100035.88
2022-09-26T16:41:42.427Z,100039.56
2022-09-26T16:44:35.300Z,100020.28
2022-09-26T16:47:06.032Z,99913.78
2022-09-26T16:49:45.775Z,100038.44
2022-09-26T16:52:35.749Z,99998.03
2022-09-26T16:55:08.847Z,100025.59
2022-09-26T16:57:39.149Z,100012.44
2022-09-26T17:02:52.777Z,100037.91
2022-09-26T17:05:22.618Z,100034.22
2022-09-26T17:07:50.071Z,99975.91
2022-09-26T17:10:19.774Z,99997.50
2022-09-26T17:12:53.610Z,100038.94
2022-09-26T17:15:30.054Z,100025.94
2022-09-26T17:17:58.397Z,100008.38
2022-09-26T17:20:25.178Z,99971.47
2022-09-26T17:22:51.833Z,99999.34
2022-09-26T17:25:18.867Z,99990.72
2022-09-26T17:27:49.343Z,100010.78
2022-09-26T17:30:19.254Z,99979.56
2022-09-26T17:32:49.904Z,100036.34
2022-09-26T17:35:19.538Z,100024.13
2022-09-26T17:37:46.521Z,99960.97
2022-09-26T17:40:18.981Z,100031.00
2022-09-26T17:42:46.352Z,100036.50
2022-09-26T17:45:13.023Z,100034.13
2022-09-26T17:47:40.411Z,100004.09
2022-09-26T17:50:10.109Z,100001.06
2022-09-26T17:52:38.322Z,100030.19
2022-09-26T17:55:07.686Z,100023.66
2022-09-26T17:57:39.514Z,100035.22
2022-09-26T18:00:11.261Z,100022.66
2022-09-26T18:02:44.609Z,100021.69
2022-09-26T18:05:20.658Z,100015.34
2022-09-26T18:07:52.411Z,99919.97
2022-09-26T18:10:24.991Z,100040.53
2022-09-26T18:12:57.833Z,100011.94
2022-09-26T18:15:26.128Z,100038.00
2022-09-26T18:17:53.393Z,100030.91
2022-09-26T18:20:28.292Z,99978.22
2022-09-26T18:22:55.009Z,100038.16
2022-09-26T18:25:26.971Z,100040.28
2022-09-26T18:27:56.877Z,100045.69
2022-09-26T18:30:24.001Z,100029.81
2022-09-26T18:32:56.371Z,100032.03
2022-09-26T18:35:27.326Z,100021.50
2022-09-26T18:37:57.222Z,99973.13
2022-09-26T18:40:25.066Z,100033.72
2022-09-26T18:42:57.200Z,100027.34
2022-09-26T18:45:36.216Z,100009.16
2022-09-26T18:48:08.274Z,100029.63
2022-09-26T18:50:39.782Z,99996.91
2022-09-26T18:53:34.656Z,100047.38
2022-09-26T18:56:19.818Z,100051.81
2022-09-26T18:58:48.383Z,100049.78
2022-09-26T19:01:21.115Z,100049.38
2022-09-26T19:03:51.097Z,100024.94
2022-09-26T19:06:21.179Z,100048.00
2022-09-26T19:08:51.368Z,100049.28
2022-09-26T19:11:23.642Z,100038.50
2022-09-26T19:13:52.762Z,100030.91
2022-09-26T19:16:20.316Z,99987.47
2022-09-26T19:18:47.541Z,100038.59
2022-09-26T19:21:38.360Z,99967.84
2022-09-26T19:24:32.336Z,100021.25
2022-09-26T19:27:30.109Z,100030.97
2022-09-26T19:30:04.346Z,100032.63
2022-09-26T19:32:32.416Z,100009.72
2022-09-26T19:35:16.159Z,100038.25
2022-09-26T19:37:43.408Z,100006.56
2022-09-26T19:40:14.593Z,100004.31
2022-09-26T19:42:42.373Z,99903.63
2022-09-26T19:45:11.091Z,99976.56
2022-09-26T19:47:45.684Z,100022.28
2022-09-26T19:50:18.042Z,100016.31
2022-09-26T19:52:45.153Z,99986.56
2022-09-26T19:55:21.353Z,100018.66
2022-09-26T19:57:48.073Z,100016.53
2022-09-26T20:00:15.519Z,99888.75
2022-09-26T20:02:42.711Z,100003.22
2022-09-26T20:05:20.240Z,100004.44
2022-09-26T20:07:49.387Z,99979.03
2022-09-26T20:10:19.043Z,99952.09
2022-09-26T20:12:46.940Z,99962.91
2022-09-26T20:15:15.192Z,99944.25
2022-09-26T20:17:44.625Z,99975.22
2022-09-26T20:20:16.551Z,99893.28
2022-09-26T20:22:44.201Z,99970.34
2022-09-26T20:25:17.214Z,99968.66
2022-09-26T20:27:44.000Z,99826.50
2022-09-26T20:30:33.257Z,99944.53
2022-09-26T20:33:00.123Z,99917.84
2022-09-26T20:35:35.599Z,99968.28
2022-09-26T20:38:33.735Z,99935.19
2022-09-26T20:41:13.325Z,99929.81
2022-09-26T20:43:43.514Z,99944.31
2022-09-26T20:46:11.738Z,99946.78
2022-09-26T20:48:42.168Z,99948.78
2022-09-26T20:51:19.127Z,99946.69
2022-09-26T20:53:45.907Z,99949.25
2022-09-26T20:56:21.131Z,99891.38
2022-09-26T20:58:48.551Z,99935.63
2022-09-26T21:01:17.573Z,99896.75
2022-09-26T21:03:51.634Z,99863.25
2022-09-26T21:06:25.045Z,99931.66
2022-09-26T21:08:53.773Z,99926.31
2022-09-26T21:11:22.992Z,99854.13
2022-09-26T21:13:52.204Z,99934.34
2022-09-26T21:16:21.642Z,99848.31
2022-09-26T21:18:51.527Z,99811.94
2022-09-26T21:21:30.409Z,99928.34
2022-09-26T21:23:59.599Z,99907.84
2022-09-26T21:26:29.989Z,99894.41
2022-09-26T21:28:58.822Z,99882.22
2022-09-26T21:31:31.912Z,99913.06
2022-09-26T21:33:59.969Z,99871.09
2022-09-26T21:36:34.702Z,99871.91
2022-09-26T21:39:02.317Z,99917.78
2022-09-26T21:41:31.239Z,99888.66
2022-09-26T21:44:03.992Z,99886.34
2022-09-26T21:46:31.114Z,99891.72
2022-09-26T21:48:58.035Z,99892.50
2022-09-26T21:51:28.567Z,99868.50
2022-09-26T21:54:03.084Z,99886.06
2022-09-26T21:56:35.651Z,99862.47
2022-09-26T21:59:06.410Z,99871.66
2022-09-26T22:01:33.103Z,99885.66
2022-09-26T22:04:01.740Z,99851.69
2022-09-26T22:06:28.468Z,99834.75
2022-09-26T22:08:55.105Z,99870.69
2022-09-26T22:11:22.145Z,99877.75
2022-09-26T22:13:48.853Z,99827.13
2022-09-26T22:16:15.795Z,99866.41
2022-09-26T22:18:42.698Z,99883.38
2022-09-26T22:21:11.043Z,99875.91
2022-09-26T22:23:38.401Z,99868.94
2022-09-26T22:26:05.893Z,99816.28
2022-09-26T22:28:32.893Z,99863.84
2022-09-26T22:31:05.849Z,99869.19
2022-09-26T22:33:33.368Z,99840.84
2022-09-26T22:36:00.099Z,99853.72
2022-09-26T22:38:26.735Z,99854.53
2022-09-26T22:41:01.806Z,99845.50
2022-09-26T22:43:29.417Z,99833.88
2022-09-26T22:46:08.146Z,99850.41
2022-09-26T22:48:43.053Z,99849.19
2022-09-26T22:51:10.344Z,99837.63
2022-09-26T22:53:38.730Z,99836.44
2022-09-26T22:56:08.090Z,99845.53
2022-09-26T22:58:39.039Z,99825.69
2022-09-26T23:01:11.757Z,99843.19
2022-09-26T23:03:39.282Z,99810.81
2022-09-26T23:06:06.783Z,99840.13
2022-09-26T23:08:34.714Z,99838.91
2022-09-26T23:11:02.726Z,99795.72
2022-09-26T23:13:31.619Z,99832.06
2022-09-26T23:16:10.137Z,99822.56
2022-09-26T23:18:39.461Z,99806.38
2022-09-26T23:21:14.147Z,99700.84
2022-09-26T23:23:43.730Z,99812.00
2022-09-26T23:26:17.067Z,99810.34
2022-09-26T23:28:43.723Z,99794.84
2022-09-26T23:31:11.500Z,99793.25
2022-09-26T23:33:38.993Z,99746.41
2022-09-26T23:36:07.046Z,99802.38
2022-09-26T23:38:35.605Z,99781.91
2022-09-26T23:41:02.394Z,99787.50
2022-09-26T23:43:30.469Z,99764.56
2022-09-26T23:45:57.235Z,99791.03
2022-09-26T23:48:23.844Z,99721.59
2022-09-26T23:50:50.873Z,99789.78
2022-09-26T23:53:17.855Z,99781.94
2022-09-26T23:55:44.930Z,99767.44
2022-09-26T23:58:12.444Z,99752.19
